Time;durP1;ratioP1;P1;durP2;ratioP2;P2;SDS_P1;SDS_P2;PMS_P1;PMS_P2;Temp;Humidity;BMP_temperature;BMP_pressure;BME280_temperature;BME280_humidity;BME280_pressure;Samples;Min_cycle;Max_cycle;Signal;HPM_P1;HPM_P2
2023/12/23 00:02:10;;;;;;;13.70;1.13;;;;;;;4.95;99.47;99148.97;5167355;28;20048;-74
2023/12/23 00:04:40;;;;;;;11.10;1.25;;;;;;;5.06;97.69;99164.97;5169004;28;20080;-74
2023/12/23 00:07:14;;;;;;;7.30;0.93;;;;;;;5.08;97.39;99163.19;5169015;28;20046;-74
2023/12/23 00:09:44;;;;;;;12.05;2.05;;;;;;;5.13;97.07;99163.00;5168620;28;20523;-74
2023/12/23 00:12:15;;;;;;;8.73;1.38;;;;;;;5.15;96.99;99166.38;5169521;28;20038;-74
2023/12/23 00:14:45;;;;;;;9.27;1.05;;;;;;;5.18;97.08;99169.69;5168390;28;20029;-74
2023/12/23 00:17:15;;;;;;;9.52;0.90;;;;;;;5.09;96.11;99164.88;5167607;28;20480;-74
2023/12/23 00:19:46;;;;;;;2.53;0.47;;;;;;;5.07;96.54;99171.84;5168442;28;20069;-74
2023/12/23 00:22:16;;;;;;;9.27;1.10;;;;;;;5.11;96.63;99188.94;5167931;28;20019;-74
2023/12/23 00:24:46;;;;;;;6.80;0.90;;;;;;;4.97;96.48;99175.66;5167936;28;20036;-74
2023/12/23 00:27:17;;;;;;;6.68;0.85;;;;;;;4.92;94.58;99198.28;5170416;28;20117;-74
2023/12/23 00:29:47;;;;;;;8.52;1.05;;;;;;;4.96;95.05;99217.97;5165501;28;20061;-74
2023/12/23 00:32:17;;;;;;;8.32;1.10;;;;;;;4.96;94.85;99238.66;5182034;28;20019;-74
2023/12/23 00:34:48;;;;;;;5.97;0.82;;;;;;;4.99;95.58;99237.72;5167209;28;20032;-74
2023/12/23 00:37:18;;;;;;;7.68;0.88;;;;;;;4.89;95.30;99244.97;5165773;28;20030;-74
2023/12/23 00:39:48;;;;;;;8.98;1.10;;;;;;;4.87;96.05;99241.59;5164735;28;20457;-74
2023/12/23 00:42:19;;;;;;;8.57;0.80;;;;;;;4.84;96.51;99246.00;5163708;28;20510;-74
2023/12/23 00:44:49;;;;;;;11.10;1.10;;;;;;;4.89;95.54;99247.56;5166102;28;20040;-74
2023/12/23 00:47:21;;;;;;;5.32;1.00;;;;;;;4.91;94.98;99263.00;5168513;28;20030;-73
2023/12/23 00:49:51;;;;;;;6.97;1.02;;;;;;;4.90;94.92;99266.50;5169146;28;20057;-74
2023/12/23 00:52:22;;;;;;;5.47;0.75;;;;;;;4.88;94.99;99258.81;5163025;28;20072;-74
2023/12/23 00:54:52;;;;;;;8.75;1.17;;;;;;;4.88;94.79;99269.16;5159406;28;20037;-74
2023/12/23 00:57:23;;;;;;;8.32;1.02;;;;;;;4.95;94.82;99275.81;5162510;28;20025;-74
2023/12/23 00:59:54;;;;;;;9.63;1.35;;;;;;;4.95;94.80;99270.63;5160784;28;20073;-74
2023/12/23 01:02:25;;;;;;;8.68;1.00;;;;;;;4.93;94.19;99287.94;5165784;28;20025;-74
2023/12/23 01:04:55;;;;;;;11.23;1.05;;;;;;;4.98;92.96;99301.56;5159667;28;20085;-74
2023/12/23 01:07:25;;;;;;;10.85;1.40;;;;;;;4.97;92.64;99292.13;5160172;28;20244;-74
2023/12/23 01:09:57;;;;;;;8.38;1.05;;;;;;;4.90;92.17;99316.53;5153181;28;20030;-73
2023/12/23 01:12:27;;;;;;;11.13;1.30;;;;;;;5.00;92.00;99320.47;5159368;28;20025;-74
2023/12/23 01:14:58;;;;;;;11.35;1.13;;;;;;;5.02;91.09;99336.84;5166024;28;20033;-74
2023/12/23 01:17:28;;;;;;;5.07;0.68;;;;;;;4.82;93.33;99326.25;5165678;28;20033;-73
2023/12/23 01:19:58;;;;;;;8.70;1.00;;;;;;;4.77;95.86;99330.75;5163819;28;20080;-74
2023/12/23 01:22:29;;;;;;;7.55;0.80;;;;;;;4.59;97.93;99333.94;5168860;28;20052;-74
2023/12/23 01:24:59;;;;;;;5.75;0.85;;;;;;;4.27;99.67;99354.75;5178390;28;20022;-73
2023/12/23 01:27:29;;;;;;;5.53;0.80;;;;;;;4.12;100.00;99351.78;5169752;28;20033;-74
2023/12/23 01:30:00;;;;;;;5.57;0.85;;;;;;;4.15;100.00;99362.88;5164229;28;20555;-74
2023/12/23 01:32:30;;;;;;;6.75;1.08;;;;;;;4.17;100.00;99380.94;5165539;28;20482;-74
2023/12/23 01:35:00;;;;;;;6.47;0.88;;;;;;;4.30;100.00;99375.34;5164771;28;20053;-74
2023/12/23 01:37:31;;;;;;;8.13;0.98;;;;;;;4.36;99.95;99382.94;5168881;28;20022;-73
2023/12/23 01:40:01;;;;;;;7.70;0.73;;;;;;;4.48;99.51;99382.56;5163359;28;20061;-73
2023/12/23 01:42:31;;;;;;;7.40;1.42;;;;;;;4.55;98.52;99380.63;5166348;28;20040;-74
2023/12/23 01:45:02;;;;;;;6.20;0.90;;;;;;;4.55;97.69;99380.63;5166100;28;20034;-73
2023/12/23 01:47:34;;;;;;;10.93;1.30;;;;;;;4.51;98.01;99377.31;5168213;28;20022;-74
2023/12/23 01:50:05;;;;;;;7.70;1.00;;;;;;;4.59;98.14;99369.28;5168799;28;20026;-73
2023/12/23 01:52:38;;;;;;;6.53;1.08;;;;;;;4.67;98.27;99373.31;5167948;28;20029;-73
2023/12/23 01:55:08;;;;;;;8.45;1.10;;;;;;;4.67;98.26;99375.09;5169796;28;20491;-74
2023/12/23 01:57:39;;;;;;;10.65;1.42;;;;;;;4.51;98.16;99366.97;5170186;28;20054;-74
2023/12/23 02:00:10;;;;;;;8.73;1.27;;;;;;;4.60;98.33;99366.66;5172020;28;20077;-74
2023/12/23 02:02:40;;;;;;;8.32;0.95;;;;;;;4.56;97.83;99370.25;5168556;28;20046;-74
2023/12/23 02:05:11;;;;;;;11.57;1.45;;;;;;;4.63;98.43;99376.09;5168518;28;20096;-74
2023/12/23 02:07:45;;;;;;;9.88;1.17;;;;;;;4.61;98.80;99378.69;5170213;28;20037;-74
2023/12/23 02:10:16;;;;;;;10.82;1.30;;;;;;;4.67;98.62;99383.69;5168967;28;20105;-74
2023/12/23 02:13:02;;;;;;;10.02;1.17;;;;;;;4.64;99.14;99365.66;5169169;28;20120;-73
2023/12/23 02:15:33;;;;;;;4.75;0.68;;;;;;;4.63;99.37;99371.75;5169227;28;20133;-74
2023/12/23 02:18:03;;;;;;;13.95;1.52;;;;;;;4.60;99.48;99381.34;5172532;28;20096;-74
2023/12/23 02:20:34;;;;;;;8.25;1.30;;;;;;;4.69;99.84;99381.06;5172380;28;20379;-73
2023/12/23 02:23:04;;;;;;;6.88;0.68;;;;;;;4.64;100.00;99381.19;5169999;28;20100;-74
2023/12/23 02:25:35;;;;;;;6.85;0.80;;;;;;;4.66;100.00;99386.34;5171201;28;20022;-73
2023/12/23 02:28:08;;;;;;;10.23;0.82;;;;;;;4.52;100.00;99393.66;5170454;28;20030;-73
2023/12/23 02:30:41;;;;;;;11.38;1.10;;;;;;;4.59;100.00;99390.84;5167214;28;20530;-74
2023/12/23 02:33:12;;;;;;;4.72;0.90;;;;;;;4.64;100.00;99383.78;5168569;28;20038;-74
2023/12/23 02:35:43;;;;;;;5.85;1.02;;;;;;;4.64;100.00;99383.78;5169090;28;20034;-74
2023/12/23 02:38:13;;;;;;;9.82;1.38;;;;;;;4.55;100.00;99386.66;5168477;28;20038;-74
2023/12/23 02:40:43;;;;;;;5.53;0.82;;;;;;;4.50;100.00;99398.88;5169526;28;20637;-74
2023/12/23 02:43:14;;;;;;;4.10;1.00;;;;;;;4.61;100.00;99396.81;5168384;28;20088;-73
2023/12/23 02:45:44;;;;;;;8.50;0.95;;;;;;;4.68;100.00;99400.06;5166825;28;20125;-73
2023/12/23 02:48:14;;;;;;;6.82;1.20;;;;;;;4.58;100.00;99404.66;5188191;28;20382;-74
2023/12/23 02:50:45;;;;;;;6.70;1.15;;;;;;;4.66;100.00;99396.69;5170773;28;20035;-73
2023/12/23 02:53:15;;;;;;;8.05;1.30;;;;;;;4.74;100.00;99395.53;5170232;28;20113;-74
2023/12/23 02:55:45;;;;;;;11.65;1.40;;;;;;;4.73;99.64;99399.03;5165784;28;20387;-73
2023/12/23 02:58:16;;;;;;;7.88;1.63;;;;;;;4.78;99.99;99402.31;5171112;28;20310;-73
2023/12/23 03:00:46;;;;;;;12.57;1.15;;;;;;;4.77;99.67;99395.44;5162126;28;20025;-73
2023/12/23 03:03:16;;;;;;;11.70;1.48;;;;;;;4.81;99.90;99384.09;5156500;28;20030;-74
2023/12/23 03:05:47;;;;;;;13.63;1.45;;;;;;;4.88;99.76;99388.19;5156950;28;20101;-73
2023/12/23 03:08:17;;;;;;;13.18;1.17;;;;;;;4.74;99.95;99389.50;5159670;28;20471;-74
2023/12/23 03:10:47;;;;;;;9.93;1.00;;;;;;;4.86;99.59;99390.00;5158279;28;20036;-73
2023/12/23 03:13:17;;;;;;;7.43;1.02;;;;;;;4.83;98.84;99394.41;5162672;28;20408;-74
2023/12/23 03:15:48;;;;;;;7.28;1.05;;;;;;;4.80;99.40;99389.34;5161592;28;20346;-74
2023/12/23 03:18:18;;;;;;;11.43;1.70;;;;;;;4.76;99.31;99393.75;5165084;28;20037;-73
2023/12/23 03:20:49;;;;;;;11.48;1.55;;;;;;;4.94;99.34;99397.53;5164063;28;20026;-74
2023/12/23 03:23:20;;;;;;;16.35;1.60;;;;;;;4.85;99.84;99384.84;5163138;28;20503;-73
2023/12/23 03:25:50;;;;;;;14.05;1.40;;;;;;;4.93;100.00;99391.47;5174213;28;20034;-74
2023/12/23 03:28:20;;;;;;;12.30;0.98;;;;;;;4.90;100.00;99391.59;5172475;28;20037;-74
2023/12/23 03:30:51;;;;;;;10.60;1.13;;;;;;;5.00;99.13;99392.97;5162568;28;20108;-73
2023/12/23 03:33:21;;;;;;;10.70;1.30;;;;;;;5.02;98.64;99391.19;5151914;28;20023;-74
2023/12/23 03:35:51;;;;;;;9.85;1.20;;;;;;;5.14;98.98;99385.59;5159652;28;20041;-74
2023/12/23 03:38:21;;;;;;;10.85;1.40;;;;;;;5.13;99.13;99389.09;5159469;28;20488;-73
2023/12/23 03:40:52;;;;;;;8.50;1.10;;;;;;;5.13;98.22;99383.09;5158535;28;20121;-73
2023/12/23 03:43:22;;;;;;;13.68;1.27;;;;;;;5.20;98.32;99393.19;5159061;28;20034;-74
2023/12/23 03:45:53;;;;;;;12.40;2.03;;;;;;;5.27;97.92;99386.91;5160884;28;20034;-74
2023/12/23 03:48:24;;;;;;;12.68;1.88;;;;;;;5.21;97.75;99392.28;5159212;28;20420;-73
2023/12/23 03:50:55;;;;;;;8.32;1.40;;;;;;;5.09;99.01;99387.50;5161120;28;20034;-74
2023/12/23 03:53:25;;;;;;;11.00;1.10;;;;;;;5.21;98.25;99392.28;5159442;28;20053;-74
2023/12/23 03:55:55;;;;;;;14.57;1.27;;;;;;;5.17;97.83;99395.84;5160084;28;20072;-73
2023/12/23 03:58:26;;;;;;;8.80;1.55;;;;;;;5.23;97.63;99408.63;5160947;28;20388;-73
2023/12/23 04:00:56;;;;;;;7.78;0.98;;;;;;;5.26;97.76;99411.09;5181377;28;20025;-73
2023/12/23 04:03:26;;;;;;;18.38;1.80;;;;;;;5.28;97.83;99413.63;5162449;28;20121;-73
2023/12/23 04:05:57;;;;;;;12.50;2.58;;;;;;;5.37;96.80;99415.94;5163270;28;20034;-73
2023/12/23 04:08:27;;;;;;;12.73;1.25;;;;;;;5.28;97.75;99404.13;5163039;28;20042;-74
2023/12/23 04:10:58;;;;;;;11.80;1.52;;;;;;;5.28;96.91;99411.03;5162496;28;20022;-74
2023/12/23 04:13:29;;;;;;;9.60;1.20;;;;;;;5.32;98.08;99417.84;5164632;28;20534;-73
2023/12/23 04:16:04;;;;;;;8.85;1.05;;;;;;;5.24;97.44;99397.38;5159848;28;20030;-74
2023/12/23 04:18:34;;;;;;;12.23;1.17;;;;;;;5.34;97.49;99398.72;5166923;28;20022;-73
2023/12/23 04:21:09;;;;;;;8.20;1.17;;;;;;;5.20;97.38;99400.97;5162473;28;20025;-71
2023/12/23 04:23:39;;;;;;;11.13;1.30;;;;;;;5.20;98.52;99394.91;5163336;28;20443;-74
2023/12/23 04:26:10;;;;;;;10.32;1.20;;;;;;;5.23;99.51;99385.31;5161639;28;20026;-74
2023/12/23 04:28:41;;;;;;;15.88;1.00;;;;;;;5.09;100.00;99382.31;5165000;28;20100;-74
2023/12/23 04:31:11;;;;;;;11.60;1.13;;;;;;;5.03;100.00;99377.38;5159059;28;20828;-74
2023/12/23 04:33:41;;;;;;;9.82;0.80;;;;;;;5.11;100.00;99379.69;5158381;28;20038;-74
2023/12/23 04:36:12;;;;;;;13.15;1.55;;;;;;;4.97;100.00;99372.38;5165101;28;20283;-74
2023/12/23 04:38:42;;;;;;;10.23;1.13;;;;;;;4.94;100.00;99367.28;5159505;28;20104;-74
2023/12/23 04:41:12;;;;;;;8.82;1.25;;;;;;;5.04;100.00;99367.84;5162117;28;20080;-74
2023/12/23 04:43:43;;;;;;;8.73;1.00;;;;;;;5.00;100.00;99377.44;5158435;28;20046;-74
2023/12/23 04:46:13;;;;;;;8.40;1.25;;;;;;;4.91;100.00;99363.94;5165190;28;20073;-74
2023/12/23 04:48:43;;;;;;;4.05;0.70;;;;;;;4.81;100.00;99371.16;5160982;28;20092;-74
2023/12/23 04:51:14;;;;;;;7.28;0.90;;;;;;;4.82;100.00;99374.59;5157679;28;20030;-73
2023/12/23 04:53:44;;;;;;;9.35;0.95;;;;;;;4.77;100.00;99373.91;5162104;28;20030;-73
2023/12/23 04:56:14;;;;;;;6.22;1.48;;;;;;;4.79;100.00;99365.19;5158579;28;20069;-73
2023/12/23 04:58:44;;;;;;;7.22;0.80;;;;;;;4.80;100.00;99366.06;5165167;28;20054;-73
2023/12/23 05:01:15;;;;;;;6.38;0.90;;;;;;;4.75;100.00;99358.44;5160779;28;20093;-74
2023/12/23 05:03:45;;;;;;;10.93;1.13;;;;;;;4.70;100.00;99357.75;5178100;28;20026;-74
2023/12/23 05:06:15;;;;;;;7.45;0.85;;;;;;;4.68;100.00;99359.53;5157964;28;20030;-73
2023/12/23 05:08:46;;;;;;;10.63;0.98;;;;;;;4.67;100.00;99355.22;5163164;28;20037;-73
2023/12/23 05:11:16;;;;;;;8.63;1.40;;;;;;;4.72;100.00;99349.91;5157840;28;20033;-74
2023/12/23 05:13:46;;;;;;;6.22;0.95;;;;;;;4.69;100.00;99345.69;5159812;28;20332;-74
2023/12/23 05:16:17;;;;;;;8.60;1.50;;;;;;;4.70;100.00;99351.69;5158490;28;20445;-74
2023/12/23 05:18:47;;;;;;;8.30;1.15;;;;;;;4.66;100.00;99356.13;5159779;28;20050;-73
2023/12/23 05:21:17;;;;;;;14.88;1.70;;;;;;;4.74;100.00;99348.97;5159839;28;20117;-74
2023/12/23 05:23:48;;;;;;;6.57;0.90;;;;;;;4.79;100.00;99341.91;5162817;28;20040;-73
2023/12/23 05:26:19;;;;;;;6.35;1.10;;;;;;;4.74;100.00;99336.03;5163948;28;20056;-74
2023/12/23 05:28:50;;;;;;;12.38;1.35;;;;;;;4.73;100.00;99334.34;5164453;28;20368;-74
2023/12/23 05:31:20;;;;;;;7.15;1.40;;;;;;;4.80;100.00;99338.41;5165750;28;20491;-73
2023/12/23 05:33:55;;;;;;;7.18;0.93;;;;;;;4.69;100.00;99340.53;5168929;28;20075;-74
2023/12/23 05:36:25;;;;;;;15.13;1.20;;;;;;;4.72;100.00;99343.00;5164957;28;20041;-74
2023/12/23 05:38:55;;;;;;;8.38;1.33;;;;;;;4.74;100.00;99348.97;5162519;28;20030;-74
2023/12/23 05:41:26;;;;;;;8.10;0.98;;;;;;;4.77;100.00;99337.69;5168327;28;20061;-74
2023/12/23 05:43:56;;;;;;;8.18;1.20;;;;;;;4.69;100.00;99335.34;5173340;28;20030;-75
2023/12/23 05:46:26;;;;;;;5.68;1.20;;;;;;;4.58;100.00;99331.38;5166571;28;20026;-74
2023/12/23 05:48:56;;;;;;;7.15;1.17;;;;;;;4.57;100.00;99327.09;5172403;28;20032;-74
2023/12/23 05:51:27;;;;;;;10.00;1.50;;;;;;;4.58;100.00;99328.78;5171682;28;20041;-73
2023/12/23 05:53:57;;;;;;;9.55;1.48;;;;;;;4.55;100.00;99327.16;5167659;28;20050;-74
2023/12/23 05:56:28;;;;;;;12.98;1.45;;;;;;;4.55;100.00;99322.00;5172974;28;20030;-73
2023/12/23 05:58:58;;;;;;;6.90;1.10;;;;;;;4.50;100.00;99321.28;5173626;28;20034;-73
2023/12/23 06:01:28;;;;;;;7.85;0.90;;;;;;;4.50;100.00;99323.84;5169068;28;20127;-73
2023/12/23 06:03:58;;;;;;;7.95;1.08;;;;;;;4.50;100.00;99321.28;5173387;28;20479;-74
2023/12/23 06:06:29;;;;;;;6.65;0.85;;;;;;;4.45;100.00;99307.66;5173283;28;20037;-74
2023/12/23 06:08:59;;;;;;;4.15;0.45;;;;;;;4.39;100.00;99302.69;5171584;28;20037;-74
2023/12/23 06:11:29;;;;;;;3.75;0.50;;;;;;;4.39;100.00;99294.91;5166679;28;20129;-74
2023/12/23 06:13:59;;;;;;;2.85;0.60;;;;;;;4.38;100.00;99293.22;5173301;28;20044;-74
2023/12/23 06:16:30;;;;;;;2.90;0.60;;;;;;;4.47;100.00;99295.50;5169260;28;20048;-74
2023/12/23 06:19:00;;;;;;;2.55;0.50;;;;;;;4.41;100.00;99298.31;5173073;28;20025;-74
2023/12/23 06:21:30;;;;;;;2.85;0.50;;;;;;;4.41;100.00;99298.31;5169023;28;20049;-74
2023/12/23 06:24:01;;;;;;;5.32;0.52;;;;;;;4.45;100.00;99280.97;5172526;28;20475;-74
2023/12/23 06:26:31;;;;;;;2.13;0.55;;;;;;;4.46;100.00;99280.06;5171388;28;20025;-74
2023/12/23 06:29:01;;;;;;;3.30;0.82;;;;;;;4.40;100.00;99270.75;5173954;28;20168;-74
2023/12/23 06:31:33;;;;;;;4.20;0.70;;;;;;;4.49;100.00;99267.84;5170731;28;20042;-74
2023/12/23 06:34:03;;;;;;;2.85;0.65;;;;;;;4.45;100.00;99253.34;5182600;28;20014;-74
2023/12/23 06:36:33;;;;;;;5.82;0.77;;;;;;;4.45;100.00;99253.34;5168824;28;20030;-73
2023/12/23 06:39:04;;;;;;;5.20;0.70;;;;;;;4.44;100.00;99256.81;5173573;28;20384;-74
2023/12/23 06:41:34;;;;;;;3.75;0.60;;;;;;;4.39;100.00;99238.03;5173202;28;20026;-73
2023/12/23 06:44:04;;;;;;;3.90;0.60;;;;;;;4.50;100.00;99241.09;5163191;28;20388;-73
2023/12/23 06:46:35;;;;;;;3.85;0.45;;;;;;;4.55;100.00;99240.94;5170705;28;20494;-73
2023/12/23 06:49:05;;;;;;;5.25;0.65;;;;;;;4.63;100.00;99247.56;5173246;28;20045;-74
2023/12/23 06:51:35;;;;;;;4.03;0.60;;;;;;;4.64;100.00;99236.31;5168744;28;20026;-73
2023/12/23 06:54:06;;;;;;;5.82;1.42;;;;;;;4.64;100.00;99238.06;5175632;28;20025;-74
2023/12/23 06:56:36;;;;;;;5.63;0.70;;;;;;;4.56;100.00;99225.41;5172611;28;20061;-74
2023/12/23 06:59:09;;;;;;;6.65;0.75;;;;;;;4.67;100.00;99219.84;5174519;28;20525;-74
2023/12/23 07:01:40;;;;;;;5.10;0.80;;;;;;;4.64;100.00;99223.38;5172252;28;20589;-73
2023/12/23 07:04:10;;;;;;;4.43;0.68;;;;;;;4.73;100.00;99217.06;5172484;28;20058;-74
2023/12/23 07:06:40;;;;;;;6.70;0.70;;;;;;;4.78;100.00;99210.81;5167768;28;20038;-74
2023/12/23 07:09:10;;;;;;;5.63;0.77;;;;;;;4.75;100.00;99213.53;5173377;28;20541;-74
2023/12/23 07:11:41;;;;;;;3.75;0.75;;;;;;;4.78;100.00;99210.81;5170310;28;20022;-74
2023/12/23 07:14:11;;;;;;;3.63;0.70;;;;;;;4.92;100.00;99206.03;5169896;28;20026;-74
2023/12/23 07:16:43;;;;;;;8.90;0.90;;;;;;;4.91;100.00;99204.34;5173581;28;20112;-73
2023/12/23 07:19:14;;;;;;;3.97;0.60;;;;;;;4.93;100.00;99204.28;5187384;28;20574;-74
2023/12/23 07:21:44;;;;;;;4.00;0.70;;;;;;;4.94;100.00;99203.41;5171092;28;20105;-74
2023/12/23 07:24:15;;;;;;;4.32;0.52;;;;;;;4.90;100.00;99202.66;5174421;28;20110;-74
2023/12/23 07:26:45;;;;;;;7.05;0.85;;;;;;;5.01;100.00;99212.63;5172142;28;20450;-74
2023/12/23 07:29:17;;;;;;;4.25;0.63;;;;;;;5.02;100.00;99201.38;5169434;28;20057;-74
2023/12/23 07:31:47;;;;;;;6.97;0.85;;;;;;;5.08;100.00;99199.41;5164034;28;20029;-74
2023/12/23 07:34:17;;;;;;;5.25;0.73;;;;;;;5.00;100.00;99204.00;5165719;28;20407;-74
2023/12/23 07:36:47;;;;;;;2.45;0.50;;;;;;;4.94;100.00;99203.41;5174411;28;20308;-74
2023/12/23 07:39:18;;;;;;;2.25;0.75;;;;;;;4.80;100.00;99198.69;5175128;28;20022;-74
2023/12/23 07:41:48;;;;;;;2.83;0.40;;;;;;;4.78;100.00;99194.47;5170672;28;20037;-74
2023/12/23 07:44:18;;;;;;;3.20;0.40;;;;;;;4.80;100.00;99185.75;5174956;28;20034;-74
2023/12/23 07:46:49;;;;;;;1.20;0.30;;;;;;;4.62;100.00;99196.72;5173810;28;20495;-74
2023/12/23 07:49:19;;;;;;;1.83;0.40;;;;;;;4.67;100.00;99189.66;5173004;28;20151;-74
2023/12/23 07:51:49;;;;;;;1.10;0.40;;;;;;;4.63;100.00;99182.88;5165913;28;20058;-74
2023/12/23 07:54:20;;;;;;;1.58;0.50;;;;;;;4.62;100.00;99183.78;5164616;28;20041;-74
2023/12/23 07:56:50;;;;;;;1.92;0.50;;;;;;;4.66;100.00;99185.38;5167290;28;20034;-74
2023/12/23 07:59:21;;;;;;;0.80;0.30;;;;;;;4.72;100.00;99180.00;5169829;28;20041;-73
2023/12/23 08:01:51;;;;;;;2.35;0.60;;;;;;;4.64;100.00;99182.00;5167931;28;20026;-74
2023/12/23 08:04:22;;;;;;;0.50;0.40;;;;;;;4.56;100.00;99180.56;5172478;28;20034;-73
2023/12/23 08:06:52;;;;;;;3.03;0.50;;;;;;;4.58;100.00;99181.34;5171239;28;20094;-74
2023/12/23 08:09:23;;;;;;;1.15;0.35;;;;;;;4.47;100.00;99179.13;5174642;28;20030;-74
2023/12/23 08:11:53;;;;;;;0.95;0.40;;;;;;;4.61;100.00;99182.09;5184934;28;20173;-74
2023/12/23 08:14:23;;;;;;;1.83;0.60;;;;;;;4.50;100.00;99173.84;5167004;28;20124;-74
2023/12/23 08:16:54;;;;;;;2.90;1.02;;;;;;;4.66;100.00;99185.38;5165037;28;20068;-74
2023/12/23 08:19:25;;;;;;;2.03;0.50;;;;;;;4.58;100.00;99176.19;5169897;28;20517;-72
2023/12/23 08:21:55;;;;;;;2.45;1.05;;;;;;;4.58;100.00;99177.03;5172075;28;20069;-74
2023/12/23 08:24:25;;;;;;;1.48;0.60;;;;;;;4.59;100.00;99177.88;5171472;28;20510;-72
2023/12/23 08:26:56;;;;;;;2.67;0.77;;;;;;;4.67;100.00;99181.06;5160790;28;20082;-74
2023/12/23 08:29:26;;;;;;;2.58;0.75;;;;;;;4.62;100.00;99176.03;5185429;28;20033;-73
2023/12/23 08:31:57;;;;;;;1.95;0.60;;;;;;;4.67;100.00;99176.72;5171070;28;20030;-74
2023/12/23 08:34:28;;;;;;;1.45;0.32;;;;;;;4.60;100.00;99174.41;5170756;28;20037;-72
2023/12/23 08:36:58;;;;;;;1.50;0.60;;;;;;;4.66;100.00;99169.84;5165244;28;20037;-74
2023/12/23 08:39:28;;;;;;;0.65;0.40;;;;;;;4.59;100.00;99163.22;5167285;28;20487;-73
2023/12/23 08:41:59;;;;;;;1.17;0.40;;;;;;;4.59;100.00;99168.38;5162959;28;20117;-74
2023/12/23 08:44:29;;;;;;;1.23;0.57;;;;;;;4.60;100.00;99167.47;5168440;28;20171;-75
2023/12/23 08:46:59;;;;;;;1.10;0.45;;;;;;;4.67;100.00;99166.34;5165505;28;20038;-74
2023/12/23 08:49:30;;;;;;;1.33;0.57;;;;;;;4.65;100.00;99168.16;5160691;28;20026;-75
2023/12/23 08:52:00;;;;;;;2.90;0.50;;;;;;;4.51;100.00;99164.38;5161217;28;20026;-74
2023/12/23 08:54:30;;;;;;;1.10;0.57;;;;;;;4.63;100.00;99161.38;5166235;28;20539;-74
2023/12/23 08:57:01;;;;;;;1.00;0.40;;;;;;;4.54;100.00;99167.69;5167991;28;20038;-74
2023/12/23 08:59:31;;;;;;;1.35;0.50;;;;;;;4.76;100.00;99160.88;5170940;28;20041;-74
2023/12/23 09:02:03;;;;;;;0.85;0.47;;;;;;;4.65;100.00;99160.41;5169322;28;20383;-74
2023/12/23 09:04:34;;;;;;;0.90;0.40;;;;;;;4.72;100.00;99158.44;5169556;28;20129;-73
2023/12/23 09:07:04;;;;;;;3.08;0.50;;;;;;;4.75;100.00;99160.91;5169295;28;20120;-74
2023/12/23 09:09:34;;;;;;;0.88;0.50;;;;;;;4.68;100.00;99152.56;5174576;28;20104;-74
2023/12/23 09:12:06;;;;;;;1.83;0.80;;;;;;;4.71;100.00;99157.63;5166978;28;20039;-74
2023/12/23 09:14:36;;;;;;;1.10;0.50;;;;;;;4.76;100.00;99167.78;5165520;28;20030;-74
2023/12/23 09:17:06;;;;;;;2.00;0.57;;;;;;;4.71;100.00;99165.38;5166752;28;20076;-74
2023/12/23 09:19:36;;;;;;;4.85;1.00;;;;;;;4.73;100.00;99166.16;5168380;28;20041;-74
2023/12/23 09:22:07;;;;;;;3.65;0.82;;;;;;;4.75;100.00;99163.50;5169931;28;20030;-74
2023/12/23 09:24:37;;;;;;;1.55;0.40;;;;;;;4.71;100.00;99172.28;5162330;28;20081;-74
2023/12/23 09:27:07;;;;;;;0.73;0.43;;;;;;;4.63;100.00;99171.72;5168754;28;20046;-74
2023/12/23 09:29:38;;;;;;;1.55;0.70;;;;;;;4.71;100.00;99170.56;5170674;28;20034;-73
2023/12/23 09:32:08;;;;;;;0.52;0.30;;;;;;;4.70;100.00;99173.19;5170482;28;20137;-74
2023/12/23 09:34:38;;;;;;;0.90;0.40;;;;;;;4.69;100.00;99171.50;5176531;28;20030;-74
2023/12/23 09:37:09;;;;;;;1.48;0.70;;;;;;;4.72;100.00;99172.25;5173757;28;20443;-74
2023/12/23 09:39:39;;;;;;;3.78;1.20;;;;;;;4.60;100.00;99177.81;5173137;28;20080;-74
2023/12/23 09:42:10;;;;;;;2.70;1.10;;;;;;;4.64;100.00;99176.81;5172534;28;20385;-74
2023/12/23 09:44:41;;;;;;;1.00;0.50;;;;;;;4.63;100.00;99177.72;5172528;28;20315;-74
2023/12/23 09:47:12;;;;;;;0.95;0.40;;;;;;;4.47;100.00;99183.47;5174051;28;20078;-74
2023/12/23 09:49:43;;;;;;;1.08;0.35;;;;;;;4.42;100.00;99181.03;5174871;28;20137;-74
2023/12/23 09:52:14;;;;;;;2.85;1.20;;;;;;;4.51;100.00;99185.06;5174420;28;20045;-74
2023/12/23 09:54:50;;;;;;;3.20;1.52;;;;;;;4.40;100.00;99193.16;5169216;28;20113;-74
2023/12/23 09:57:21;;;;;;;1.77;0.85;;;;;;;4.50;100.00;99188.53;5171154;28;20053;-74
2023/12/23 09:59:52;;;;;;;1.27;0.70;;;;;;;4.43;100.00;99193.06;5172777;28;20109;-73
2023/12/23 10:02:22;;;;;;;3.90;1.67;;;;;;;4.39;100.00;99199.25;5166655;28;20073;-74
2023/12/23 10:04:53;;;;;;;1.00;0.50;;;;;;;4.30;100.00;99202.13;5169473;28;20041;-73
2023/12/23 10:07:23;;;;;;;1.58;0.60;;;;;;;4.28;100.00;99201.31;5169201;28;20076;-74
2023/12/23 10:09:53;;;;;;;2.67;1.10;;;;;;;4.35;100.00;99197.66;5163961;28;20030;-74
2023/12/23 10:12:24;;;;;;;0.90;0.50;;;;;;;4.29;100.00;99199.59;5165211;28;20052;-74
2023/12/23 10:14:54;;;;;;;1.30;0.70;;;;;;;4.03;100.00;99197.84;5165577;28;20037;-74
2023/12/23 10:17:24;;;;;;;0.80;0.40;;;;;;;4.08;100.00;99201.13;5166941;28;20033;-75
2023/12/23 10:19:55;;;;;;;2.25;0.60;;;;;;;4.09;100.00;99199.41;5163034;28;20049;-74
2023/12/23 10:22:26;;;;;;;1.40;0.50;;;;;;;4.03;100.00;99196.97;5166872;28;20026;-73
2023/12/23 10:24:57;;;;;;;1.20;0.60;;;;;;;4.03;100.00;99196.97;5164930;28;20043;-74
2023/12/23 10:27:32;;;;;;;1.10;0.60;;;;;;;3.93;100.00;99196.44;5169984;28;20029;-74
2023/12/23 10:30:08;;;;;;;1.13;0.70;;;;;;;3.87;100.00;99201.78;5166829;28;20411;-73
2023/12/23 10:32:39;;;;;;;2.10;1.30;;;;;;;3.76;100.00;99203.84;5185899;28;20057;-73
2023/12/23 10:35:15;;;;;;;1.20;0.80;;;;;;;3.83;100.00;99207.97;5171238;28;20451;-74
2023/12/23 10:37:46;;;;;;;3.58;1.95;;;;;;;3.63;100.00;99212.84;5170506;28;20030;-74
2023/12/23 10:40:20;;;;;;;3.20;1.00;;;;;;;3.43;100.00;99211.75;5185498;28;20083;-74
2023/12/23 10:42:52;;;;;;;2.50;1.20;;;;;;;3.48;100.00;99214.19;5169912;28;20030;-74
2023/12/23 10:45:22;;;;;;;2.25;1.10;;;;;;;3.48;100.00;99216.78;5169970;28;20380;-73
2023/12/23 10:47:53;;;;;;;3.75;1.80;;;;;;;3.52;100.00;99213.22;5170282;28;20041;-73
2023/12/23 10:50:24;;;;;;;1.83;0.85;;;;;;;3.42;100.00;99222.97;5171497;28;20095;-74
2023/12/23 10:52:56;;;;;;;2.03;1.02;;;;;;;3.51;100.00;99222.69;5172449;28;20548;-74
2023/12/23 10:55:29;;;;;;;1.52;0.90;;;;;;;3.46;100.00;99224.59;5161793;28;20069;-73
2023/12/23 10:58:00;;;;;;;3.05;0.70;;;;;;;3.47;100.00;99215.09;5167580;28;20110;-74
2023/12/23 11:00:30;;;;;;;3.25;1.30;;;;;;;3.44;100.00;99221.19;5164487;28;20113;-74
2023/12/23 11:03:02;;;;;;;2.75;1.00;;;;;;;3.47;100.00;99200.44;5160321;28;20031;-74
2023/12/23 11:05:35;;;;;;;3.25;0.90;;;;;;;3.39;100.00;99217.88;5164779;28;20478;-74
2023/12/23 11:08:08;;;;;;;1.10;0.73;;;;;;;3.27;100.00;99210.50;5163095;28;20022;-77
2023/12/23 11:10:41;;;;;;;1.42;0.68;;;;;;;3.48;100.00;99222.78;5159155;28;20491;-77
2023/12/23 11:13:13;;;;;;;0.75;0.63;;;;;;;3.58;100.00;99218.22;5160594;28;20345;-76
2023/12/23 11:15:43;;;;;;;0.95;0.60;;;;;;;3.43;100.00;99216.94;5161065;28;20069;-76
2023/12/23 11:18:14;;;;;;;1.77;0.90;;;;;;;3.46;100.00;99223.72;5161533;28;20038;-76
2023/12/23 11:20:47;;;;;;;1.20;0.80;;;;;;;3.48;100.00;99219.34;5161406;28;20038;-77
2023/12/23 11:23:29;;;;;;;1.35;0.77;;;;;;;3.55;100.00;99223.47;5161982;28;20057;-76
2023/12/23 11:26:03;;;;;;;1.73;0.70;;;;;;;3.52;100.00;99229.56;5162466;28;20034;-76
2023/12/23 11:28:36;;;;;;;1.65;1.00;;;;;;;3.61;100.00;99224.97;5161516;28;20053;-73
2023/12/23 11:31:08;;;;;;;2.58;1.02;;;;;;;3.44;100.00;99216.03;5160128;28;20050;-73
2023/12/23 11:33:39;;;;;;;1.23;0.80;;;;;;;3.57;100.00;99216.53;5161513;28;20108;-74
2023/12/23 11:36:09;;;;;;;2.47;0.98;;;;;;;3.43;100.00;99213.50;5160401;28;20454;-74
2023/12/23 11:38:47;;;;;;;1.27;0.73;;;;;;;3.49;100.00;99211.56;5163456;28;20061;-74
2023/12/23 11:41:21;;;;;;;1.60;1.20;;;;;;;3.63;100.00;99218.00;5167858;28;20076;-73
2023/12/23 11:43:52;;;;;;;2.03;1.00;;;;;;;3.62;100.00;99226.66;5167847;28;20038;-74
2023/12/23 11:46:24;;;;;;;2.00;1.10;;;;;;;3.54;100.00;99234.69;5163409;28;20034;-74
2023/12/23 11:48:56;;;;;;;2.72;1.50;;;;;;;3.59;100.00;99231.91;5169394;28;20092;-74
2023/12/23 11:51:27;;;;;;;3.92;1.10;;;;;;;3.72;100.00;99232.41;5159969;28;20298;-73